KLM467 CYSJ-CYQX
Flight info
| Callsign | KLM467 |
|---|---|
| Flight time | 1h 18m |
| Altitude | 39000 |
| Route | YYG |
| Aircraft | B739/M-SDE2E3FGHIRWXY/LB1 |
Departure
| Time | 2026-04-28 23:18 |
|---|---|
| Airport | Saint John Airport (CYSJ) |
Arrival
| Time | 2026-04-29 00:37 |
|---|---|
| Airport | Gander International Airport (CYQX) |
| Time | Latitude | Longitude | Altitude | Speed | Heading |
|---|---|---|---|---|---|
| 2026-04-28 23:04 | 45.32896 | -65.89145 | 355 ft | 0 kts | 137° |
| 2026-04-28 23:11 | 45.32895 | -65.89145 | 353 ft | 0 kts | 137° |
| 2026-04-28 23:12 | 45.32892 | -65.89141 | 351 ft | 3 kts | 137° |
| 2026-04-28 23:12 | 45.32857 | -65.89094 | 354 ft | 11 kts | 137° |
| 2026-04-28 23:12 | 45.32788 | -65.88987 | 337 ft | 18 kts | 121° |
| 2026-04-28 23:12 | 45.32714 | -65.88807 | 333 ft | 24 kts | 121° |
| 2026-04-28 23:13 | 45.32619 | -65.88582 | 329 ft | 28 kts | 121° |
| 2026-04-28 23:13 | 45.32495 | -65.88370 | 321 ft | 28 kts | 150° |
| 2026-04-28 23:13 | 45.32329 | -65.88254 | 319 ft | 26 kts | 182° |
| 2026-04-28 23:13 | 45.32159 | -65.88243 | 319 ft | 24 kts | 161° |
| 2026-04-28 23:14 | 45.32003 | -65.88171 | 319 ft | 23 kts | 162° |
| 2026-04-28 23:14 | 45.31848 | -65.88156 | 322 ft | 22 kts | 183° |
| 2026-04-28 23:14 | 45.31708 | -65.88235 | 323 ft | 22 kts | 212° |
| 2026-04-28 23:14 | 45.31583 | -65.88343 | 325 ft | 21 kts | 211° |
| 2026-04-28 23:15 | 45.31459 | -65.88446 | 331 ft | 20 kts | 210° |
| 2026-04-28 23:15 | 45.31337 | -65.88543 | 333 ft | 20 kts | 208° |
| 2026-04-28 23:15 | 45.31219 | -65.88636 | 339 ft | 19 kts | 214° |
| 2026-04-28 23:15 | 45.31109 | -65.88738 | 337 ft | 18 kts | 213° |
| 2026-04-28 23:16 | 45.31002 | -65.88834 | 342 ft | 18 kts | 212° |
| 2026-04-28 23:16 | 45.30884 | -65.88935 | 343 ft | 22 kts | 210° |
| 2026-04-28 23:16 | 45.30740 | -65.89054 | 351 ft | 26 kts | 212° |
| 2026-04-28 23:16 | 45.30581 | -65.89194 | 358 ft | 28 kts | 211° |
| 2026-04-28 23:17 | 45.30408 | -65.89340 | 363 ft | 30 kts | 210° |
| 2026-04-28 23:17 | 45.30310 | -65.89518 | 361 ft | 12 kts | 221° |
| 2026-04-28 23:17 | 45.30277 | -65.89454 | 365 ft | 12 kts | 47° |
| 2026-04-28 23:17 | 45.30456 | -65.89298 | 356 ft | 70 kts | 31° |
| 2026-04-28 23:18 | 45.31132 | -65.88725 | 337 ft | 151 kts | 29° |
| 2026-04-28 23:18 | 45.32165 | -65.87789 | 631 ft | 190 kts | 36° |
| 2026-04-28 23:18 | 45.33280 | -65.86685 | 1456 ft | 207 kts | 40° |
| 2026-04-28 23:18 | 45.34429 | -65.85239 | 1922 ft | 230 kts | 60° |
| 2026-04-28 23:19 | 45.35162 | -65.83235 | 2897 ft | 228 kts | 68° |
| 2026-04-28 23:19 | 45.35884 | -65.81126 | 3479 ft | 246 kts | 68° |
| 2026-04-28 23:19 | 45.36657 | -65.78901 | 4313 ft | 254 kts | 68° |
| 2026-04-28 23:19 | 45.37445 | -65.76656 | 5309 ft | 256 kts | 66° |
| 2026-04-28 23:20 | 45.38258 | -65.74356 | 6141 ft | 264 kts | 66° |
| 2026-04-28 23:20 | 45.39081 | -65.72042 | 7070 ft | 266 kts | 65° |
| 2026-04-28 23:20 | 45.39925 | -65.69675 | 7902 ft | 272 kts | 66° |
| 2026-04-28 23:20 | 45.40799 | -65.67233 | 8799 ft | 275 kts | 66° |
| 2026-04-28 23:21 | 45.41678 | -65.64785 | 9674 ft | 281 kts | 65° |
| 2026-04-28 23:21 | 45.42563 | -65.62314 | 10496 ft | 284 kts | 64° |
| 2026-04-28 23:21 | 45.43491 | -65.59721 | 10886 ft | 307 kts | 65° |
| 2026-04-28 23:21 | 45.44501 | -65.56891 | 11089 ft | 332 kts | 64° |
| 2026-04-28 23:22 | 45.45586 | -65.53857 | 11281 ft | 355 kts | 63° |
| 2026-04-28 23:22 | 45.46729 | -65.50670 | 11788 ft | 365 kts | 64° |
| 2026-04-28 23:22 | 45.47886 | -65.47430 | 12477 ft | 370 kts | 66° |
| 2026-04-28 23:22 | 45.49064 | -65.44133 | 13208 ft | 374 kts | 63° |
| 2026-04-28 23:23 | 45.50248 | -65.40827 | 13980 ft | 377 kts | 64° |
| 2026-04-28 23:23 | 45.51447 | -65.37474 | 14568 ft | 382 kts | 65° |
| 2026-04-28 23:23 | 45.52656 | -65.34088 | 15277 ft | 384 kts | 65° |
| 2026-04-28 23:23 | 45.53871 | -65.30680 | 15952 ft | 386 kts | 65° |
| 2026-04-28 23:24 | 45.55091 | -65.27253 | 16535 ft | 392 kts | 65° |
| 2026-04-28 23:24 | 45.56333 | -65.23761 | 17122 ft | 395 kts | 65° |
| 2026-04-28 23:24 | 45.57584 | -65.20238 | 17735 ft | 399 kts | 64° |
| 2026-04-28 23:24 | 45.58840 | -65.16696 | 18367 ft | 402 kts | 63° |
| 2026-04-28 23:25 | 45.60109 | -65.13107 | 18872 ft | 406 kts | 63° |
| 2026-04-28 23:25 | 45.61379 | -65.09509 | 19539 ft | 405 kts | 64° |
| 2026-04-28 23:25 | 45.62649 | -65.05911 | 20124 ft | 406 kts | 64° |
| 2026-04-28 23:25 | 45.63925 | -65.02282 | 20654 ft | 410 kts | 64° |
| 2026-04-28 23:26 | 45.65207 | -64.98639 | 21252 ft | 410 kts | 64° |
| 2026-04-28 23:26 | 45.66493 | -64.94980 | 21752 ft | 414 kts | 64° |
| 2026-04-28 23:26 | 45.67792 | -64.91276 | 22258 ft | 418 kts | 64° |
| 2026-04-28 23:26 | 45.69101 | -64.87542 | 22657 ft | 423 kts | 64° |
| 2026-04-28 23:27 | 45.70418 | -64.83776 | 23217 ft | 424 kts | 64° |
| 2026-04-28 23:27 | 45.71741 | -64.79991 | 23725 ft | 427 kts | 64° |
| 2026-04-28 23:27 | 45.73073 | -64.76173 | 24143 ft | 430 kts | 64° |
| 2026-04-28 23:27 | 45.74397 | -64.72375 | 24553 ft | 432 kts | 64° |
| 2026-04-28 23:28 | 45.75742 | -64.68508 | 24972 ft | 434 kts | 64° |
| 2026-04-28 23:28 | 45.77104 | -64.64586 | 25411 ft | 435 kts | 64° |
| 2026-04-28 23:28 | 45.78433 | -64.60757 | 25937 ft | 434 kts | 64° |
| 2026-04-28 23:28 | 45.79792 | -64.56832 | 26342 ft | 436 kts | 64° |
| 2026-04-28 23:29 | 45.81148 | -64.52911 | 26690 ft | 440 kts | 64° |
| 2026-04-28 23:29 | 45.82492 | -64.49019 | 27028 ft | 442 kts | 63° |
| 2026-04-28 23:29 | 45.83858 | -64.45057 | 27405 ft | 444 kts | 63° |
| 2026-04-28 23:29 | 45.85225 | -64.41088 | 27783 ft | 445 kts | 63° |
| 2026-04-28 23:30 | 45.86601 | -64.37085 | 28151 ft | 447 kts | 63° |
| 2026-04-28 23:30 | 45.87976 | -64.33078 | 28553 ft | 448 kts | 63° |
| 2026-04-28 23:30 | 45.89357 | -64.29049 | 28904 ft | 451 kts | 63° |
| 2026-04-28 23:30 | 45.90742 | -64.25003 | 29361 ft | 450 kts | 63° |
| 2026-04-28 23:31 | 45.92113 | -64.20990 | 29961 ft | 447 kts | 63° |
| 2026-04-28 23:31 | 45.93473 | -64.17003 | 30550 ft | 443 kts | 63° |
| 2026-04-28 23:31 | 45.94828 | -64.13025 | 30995 ft | 442 kts | 63° |
| 2026-04-28 23:31 | 45.96178 | -64.09056 | 31371 ft | 442 kts | 63° |
| 2026-04-28 23:32 | 45.97525 | -64.05091 | 31759 ft | 441 kts | 63° |
| 2026-04-28 23:32 | 45.98415 | -64.02467 | 32042 ft | 440 kts | 63° |
| 2026-04-28 23:32 | 45.99751 | -63.98525 | 32491 ft | 438 kts | 63° |
| 2026-04-28 23:32 | 46.01082 | -63.94588 | 32907 ft | 437 kts | 62° |
| 2026-04-28 23:33 | 46.02837 | -63.89393 | 33518 ft | 433 kts | 63° |
| 2026-04-28 23:33 | 46.03719 | -63.86775 | 33910 ft | 430 kts | 62° |
| 2026-04-28 23:33 | 46.05023 | -63.82903 | 34297 ft | 429 kts | 62° |
| 2026-04-28 23:33 | 46.06326 | -63.79030 | 34503 ft | 431 kts | 62° |
| 2026-04-28 23:34 | 46.07636 | -63.75131 | 34717 ft | 433 kts | 62° |
| 2026-04-28 23:34 | 46.08944 | -63.71229 | 34973 ft | 433 kts | 62° |
| 2026-04-28 23:34 | 46.10252 | -63.67322 | 35282 ft | 433 kts | 63° |
| 2026-04-28 23:34 | 46.11551 | -63.63438 | 35398 ft | 437 kts | 63° |
| 2026-04-28 23:35 | 46.12874 | -63.59476 | 35544 ft | 440 kts | 63° |
| 2026-04-28 23:35 | 46.14198 | -63.55503 | 35848 ft | 439 kts | 63° |
| 2026-04-28 23:35 | 46.15513 | -63.51550 | 36174 ft | 437 kts | 63° |
| 2026-04-28 23:35 | 46.16827 | -63.47593 | 36481 ft | 436 kts | 63° |
| 2026-04-28 23:36 | 46.18141 | -63.43632 | 36665 ft | 438 kts | 62° |
| 2026-04-28 23:36 | 46.19455 | -63.39666 | 36861 ft | 439 kts | 62° |
| 2026-04-28 23:36 | 46.20773 | -63.35682 | 37103 ft | 439 kts | 62° |
| 2026-04-28 23:36 | 46.22085 | -63.31706 | 37343 ft | 439 kts | 62° |
| 2026-04-28 23:37 | 46.23399 | -63.27723 | 37547 ft | 440 kts | 62° |
| 2026-04-28 23:37 | 46.24716 | -63.23722 | 37753 ft | 440 kts | 62° |
| 2026-04-28 23:37 | 46.26032 | -63.19720 | 37967 ft | 441 kts | 62° |
| 2026-04-28 23:37 | 46.27347 | -63.15715 | 38170 ft | 441 kts | 62° |
| 2026-04-28 23:38 | 46.28658 | -63.11718 | 38415 ft | 440 kts | 62° |
| 2026-04-28 23:38 | 46.29982 | -63.07732 | 38641 ft | 440 kts | 62° |
| 2026-04-28 23:38 | 46.31319 | -63.03738 | 38807 ft | 441 kts | 61° |
| 2026-04-28 23:38 | 46.32661 | -62.99743 | 38947 ft | 442 kts | 62° |
| 2026-04-28 23:39 | 46.35365 | -62.91671 | 39093 ft | 447 kts | 62° |
| 2026-04-28 23:39 | 46.36700 | -62.87667 | 39269 ft | 446 kts | 62° |
| 2026-04-28 23:39 | 46.38050 | -62.83611 | 39274 ft | 449 kts | 62° |
| 2026-04-28 23:40 | 46.40750 | -62.75469 | 39298 ft | 447 kts | 62° |
| 2026-04-28 23:40 | 46.43423 | -62.67376 | 39308 ft | 444 kts | 62° |
| 2026-04-28 23:41 | 46.46079 | -62.59313 | 39308 ft | 442 kts | 62° |
| 2026-04-28 23:41 | 46.48723 | -62.51264 | 39315 ft | 441 kts | 62° |
| 2026-04-28 23:42 | 46.51357 | -62.43217 | 39316 ft | 441 kts | 62° |
| 2026-04-28 23:42 | 46.53986 | -62.35165 | 39333 ft | 442 kts | 62° |
| 2026-04-28 23:43 | 46.56603 | -62.27123 | 39332 ft | 444 kts | 63° |
| 2026-04-28 23:43 | 46.59243 | -62.18986 | 39336 ft | 446 kts | 63° |
| 2026-04-28 23:44 | 46.61885 | -62.10815 | 39329 ft | 448 kts | 63° |
| 2026-04-28 23:44 | 46.64544 | -62.02565 | 39334 ft | 450 kts | 63° |
| 2026-04-28 23:45 | 46.67198 | -61.94303 | 39337 ft | 451 kts | 63° |
| 2026-04-28 23:45 | 46.69851 | -61.86018 | 39329 ft | 451 kts | 63° |
| 2026-04-28 23:46 | 46.72492 | -61.77742 | 39331 ft | 450 kts | 63° |
| 2026-04-28 23:46 | 46.75125 | -61.69466 | 39321 ft | 449 kts | 63° |
| 2026-04-28 23:47 | 46.77728 | -61.61259 | 39328 ft | 448 kts | 64° |
| 2026-04-28 23:47 | 46.80338 | -61.53001 | 39327 ft | 447 kts | 64° |
| 2026-04-28 23:48 | 46.82936 | -61.44756 | 39321 ft | 447 kts | 64° |
| 2026-04-28 23:48 | 46.85527 | -61.36505 | 39332 ft | 446 kts | 64° |
| 2026-04-28 23:49 | 46.88111 | -61.28252 | 39339 ft | 446 kts | 64° |
| 2026-04-28 23:49 | 46.90684 | -61.20008 | 39343 ft | 446 kts | 64° |
| 2026-04-28 23:50 | 46.93253 | -61.11746 | 39338 ft | 446 kts | 64° |
| 2026-04-28 23:50 | 46.95814 | -61.03484 | 39341 ft | 446 kts | 64° |
| 2026-04-28 23:51 | 46.98360 | -60.95245 | 39347 ft | 445 kts | 64° |
| 2026-04-28 23:51 | 47.00909 | -60.86967 | 39341 ft | 446 kts | 64° |
| 2026-04-28 23:52 | 47.03453 | -60.78678 | 39366 ft | 446 kts | 64° |
| 2026-04-28 23:52 | 47.05988 | -60.70393 | 39352 ft | 446 kts | 64° |
| 2026-04-28 23:53 | 47.08521 | -60.62091 | 39356 ft | 446 kts | 64° |
| 2026-04-28 23:53 | 47.11045 | -60.53783 | 39357 ft | 445 kts | 64° |
| 2026-04-28 23:54 | 47.13469 | -60.45776 | 39361 ft | 445 kts | 64° |
| 2026-04-28 23:54 | 47.15978 | -60.37470 | 39362 ft | 445 kts | 64° |
| 2026-04-28 23:55 | 47.18484 | -60.29145 | 39373 ft | 444 kts | 64° |
| 2026-04-28 23:55 | 47.20979 | -60.20826 | 39371 ft | 444 kts | 64° |
| 2026-04-28 23:56 | 47.23469 | -60.12496 | 39368 ft | 445 kts | 64° |
| 2026-04-28 23:56 | 47.25952 | -60.04156 | 39387 ft | 445 kts | 64° |
| 2026-04-28 23:57 | 47.28436 | -59.95792 | 39395 ft | 445 kts | 64° |
| 2026-04-28 23:57 | 47.30897 | -59.87476 | 39386 ft | 446 kts | 65° |
| 2026-04-28 23:58 | 47.33373 | -59.79083 | 39388 ft | 447 kts | 64° |
| 2026-04-28 23:58 | 47.35842 | -59.70678 | 39392 ft | 447 kts | 65° |
| 2026-04-28 23:59 | 47.38306 | -59.62261 | 39396 ft | 447 kts | 64° |
| 2026-04-28 23:59 | 47.40766 | -59.53838 | 39395 ft | 447 kts | 65° |
| 2026-04-29 00:00 | 47.43218 | -59.45406 | 39413 ft | 446 kts | 65° |
| 2026-04-29 00:00 | 47.45665 | -59.36967 | 39406 ft | 446 kts | 65° |
| 2026-04-29 00:01 | 47.48101 | -59.28534 | 39411 ft | 446 kts | 65° |
| 2026-04-29 00:01 | 47.50537 | -59.20072 | 39410 ft | 447 kts | 65° |
| 2026-04-29 00:02 | 47.52947 | -59.11669 | 39412 ft | 447 kts | 65° |
| 2026-04-29 00:02 | 47.55371 | -59.03189 | 39409 ft | 447 kts | 65° |
| 2026-04-29 00:03 | 47.57791 | -58.94694 | 39410 ft | 447 kts | 65° |
| 2026-04-29 00:03 | 47.60201 | -58.86206 | 39412 ft | 447 kts | 66° |
| 2026-04-29 00:04 | 47.62604 | -58.77710 | 39413 ft | 447 kts | 66° |
| 2026-04-29 00:04 | 47.65002 | -58.69202 | 39411 ft | 447 kts | 66° |
| 2026-04-29 00:05 | 47.67380 | -58.60738 | 39416 ft | 447 kts | 66° |
| 2026-04-29 00:05 | 47.69767 | -58.52207 | 39415 ft | 447 kts | 66° |
| 2026-04-29 00:06 | 47.72146 | -58.43676 | 39416 ft | 447 kts | 66° |
| 2026-04-29 00:06 | 47.74519 | -58.35137 | 39414 ft | 447 kts | 66° |
| 2026-04-29 00:07 | 47.76882 | -58.26603 | 39414 ft | 447 kts | 66° |
| 2026-04-29 00:07 | 47.79247 | -58.18032 | 39416 ft | 447 kts | 66° |
| 2026-04-29 00:08 | 47.81600 | -58.09474 | 39415 ft | 447 kts | 67° |
| 2026-04-29 00:08 | 47.83949 | -58.00898 | 39414 ft | 447 kts | 67° |
| 2026-04-29 00:09 | 47.86293 | -57.92309 | 39423 ft | 448 kts | 67° |
| 2026-04-29 00:09 | 47.88618 | -57.83757 | 39413 ft | 448 kts | 67° |
| 2026-04-29 00:10 | 47.90968 | -57.75085 | 39412 ft | 448 kts | 66° |
| 2026-04-29 00:10 | 47.93295 | -57.66465 | 39413 ft | 448 kts | 67° |
| 2026-04-29 00:11 | 47.95604 | -57.57881 | 39409 ft | 449 kts | 67° |
| 2026-04-29 00:12 | 47.99077 | -57.44909 | 39410 ft | 449 kts | 67° |
| 2026-04-29 00:12 | 48.01387 | -57.36240 | 39410 ft | 449 kts | 67° |
| 2026-04-29 00:13 | 48.03689 | -57.27570 | 39404 ft | 449 kts | 67° |
| 2026-04-29 00:13 | 48.05981 | -57.18902 | 39408 ft | 449 kts | 67° |
| 2026-04-29 00:14 | 48.08269 | -57.10220 | 39394 ft | 449 kts | 67° |
| 2026-04-29 00:14 | 48.10555 | -57.01512 | 39393 ft | 449 kts | 67° |
| 2026-04-29 00:14 | 48.11707 | -56.97116 | 38811 ft | 458 kts | 68° |
| 2026-04-29 00:15 | 48.12859 | -56.92705 | 38250 ft | 454 kts | 67° |
| 2026-04-29 00:15 | 48.14002 | -56.88319 | 37586 ft | 449 kts | 67° |
| 2026-04-29 00:15 | 48.15132 | -56.83977 | 36805 ft | 447 kts | 67° |
| 2026-04-29 00:15 | 48.16258 | -56.79642 | 36054 ft | 445 kts | 67° |
| 2026-04-29 00:16 | 48.17375 | -56.75331 | 35374 ft | 441 kts | 66° |
| 2026-04-29 00:16 | 48.18481 | -56.71055 | 34440 ft | 442 kts | 66° |
| 2026-04-29 00:16 | 48.19590 | -56.66765 | 33599 ft | 439 kts | 66° |
| 2026-04-29 00:16 | 48.20690 | -56.62502 | 32648 ft | 440 kts | 66° |
| 2026-04-29 00:17 | 48.21791 | -56.58227 | 31758 ft | 440 kts | 66° |
| 2026-04-29 00:17 | 48.22879 | -56.53992 | 30828 ft | 441 kts | 66° |
| 2026-04-29 00:17 | 48.23983 | -56.49691 | 29790 ft | 443 kts | 67° |
| 2026-04-29 00:17 | 48.25087 | -56.45377 | 28768 ft | 443 kts | 67° |
| 2026-04-29 00:18 | 48.25831 | -56.42465 | 28110 ft | 443 kts | 67° |
| 2026-04-29 00:18 | 48.27279 | -56.36785 | 27189 ft | 437 kts | 67° |
| 2026-04-29 00:18 | 48.28011 | -56.33908 | 26712 ft | 437 kts | 67° |
| 2026-04-29 00:18 | 48.29450 | -56.28243 | 25773 ft | 439 kts | 67° |
| 2026-04-29 00:19 | 48.30532 | -56.23975 | 25056 ft | 435 kts | 67° |
| 2026-04-29 00:19 | 48.31255 | -56.21119 | 24583 ft | 431 kts | 67° |
| 2026-04-29 00:19 | 48.32315 | -56.16922 | 23894 ft | 428 kts | 67° |
| 2026-04-29 00:19 | 48.33364 | -56.12763 | 23071 ft | 424 kts | 67° |
| 2026-04-29 00:20 | 48.34402 | -56.08639 | 22378 ft | 419 kts | 67° |
| 2026-04-29 00:20 | 48.35424 | -56.04571 | 21679 ft | 414 kts | 67° |
| 2026-04-29 00:20 | 48.36434 | -56.00545 | 20999 ft | 409 kts | 67° |
| 2026-04-29 00:20 | 48.37433 | -55.96558 | 20322 ft | 405 kts | 67° |
| 2026-04-29 00:21 | 48.38419 | -55.92613 | 19663 ft | 402 kts | 67° |
| 2026-04-29 00:21 | 48.39398 | -55.88694 | 19015 ft | 398 kts | 67° |
| 2026-04-29 00:21 | 48.40356 | -55.84848 | 18332 ft | 396 kts | 67° |
| 2026-04-29 00:21 | 48.41317 | -55.80986 | 17621 ft | 392 kts | 67° |
| 2026-04-29 00:22 | 48.42280 | -55.77108 | 16973 ft | 388 kts | 68° |
| 2026-04-29 00:22 | 48.43210 | -55.73357 | 16323 ft | 386 kts | 67° |
| 2026-04-29 00:22 | 48.44146 | -55.69576 | 15687 ft | 384 kts | 68° |
| 2026-04-29 00:22 | 48.45077 | -55.65807 | 15040 ft | 383 kts | 68° |
| 2026-04-29 00:23 | 48.46005 | -55.62045 | 14412 ft | 381 kts | 68° |
| 2026-04-29 00:23 | 48.46922 | -55.58321 | 13728 ft | 378 kts | 68° |
| 2026-04-29 00:23 | 48.47833 | -55.54614 | 13049 ft | 375 kts | 68° |
| 2026-04-29 00:23 | 48.48734 | -55.50941 | 12397 ft | 372 kts | 68° |
| 2026-04-29 00:24 | 48.49626 | -55.47303 | 11769 ft | 368 kts | 68° |
| 2026-04-29 00:24 | 48.50506 | -55.43705 | 11175 ft | 364 kts | 68° |
| 2026-04-29 00:24 | 48.51360 | -55.40202 | 11051 ft | 347 kts | 68° |
| 2026-04-29 00:24 | 48.52175 | -55.36855 | 10884 ft | 333 kts | 68° |
| 2026-04-29 00:25 | 48.52958 | -55.33636 | 10750 ft | 320 kts | 68° |
| 2026-04-29 00:25 | 48.53710 | -55.30540 | 10617 ft | 308 kts | 68° |
| 2026-04-29 00:25 | 48.54434 | -55.27559 | 10487 ft | 297 kts | 68° |
| 2026-04-29 00:25 | 48.55132 | -55.24679 | 10365 ft | 287 kts | 68° |
| 2026-04-29 00:26 | 48.55804 | -55.21905 | 10046 ft | 284 kts | 68° |
| 2026-04-29 00:26 | 48.56480 | -55.19116 | 9717 ft | 282 kts | 68° |
| 2026-04-29 00:26 | 48.57150 | -55.16344 | 9381 ft | 280 kts | 68° |
| 2026-04-29 00:26 | 48.57813 | -55.13598 | 9054 ft | 278 kts | 68° |
| 2026-04-29 00:27 | 48.58473 | -55.10861 | 8726 ft | 276 kts | 68° |
| 2026-04-29 00:27 | 48.59125 | -55.08152 | 8401 ft | 274 kts | 68° |
| 2026-04-29 00:27 | 48.59774 | -55.05450 | 8082 ft | 273 kts | 68° |
| 2026-04-29 00:27 | 48.60418 | -55.02767 | 7759 ft | 271 kts | 68° |
| 2026-04-29 00:28 | 48.61059 | -55.00095 | 7442 ft | 270 kts | 68° |
| 2026-04-29 00:28 | 48.61697 | -54.97430 | 7126 ft | 269 kts | 68° |
| 2026-04-29 00:28 | 48.62329 | -54.94787 | 6809 ft | 267 kts | 68° |
| 2026-04-29 00:28 | 48.62961 | -54.92145 | 6469 ft | 267 kts | 68° |
| 2026-04-29 00:29 | 48.63588 | -54.89515 | 6134 ft | 265 kts | 69° |
| 2026-04-29 00:29 | 48.64211 | -54.86900 | 5814 ft | 264 kts | 69° |
| 2026-04-29 00:29 | 48.64831 | -54.84297 | 5505 ft | 262 kts | 68° |
| 2026-04-29 00:29 | 48.65446 | -54.81711 | 5195 ft | 260 kts | 69° |
| 2026-04-29 00:30 | 48.66055 | -54.79144 | 4859 ft | 259 kts | 69° |
| 2026-04-29 00:30 | 48.66662 | -54.76587 | 4527 ft | 257 kts | 69° |
| 2026-04-29 00:30 | 48.67264 | -54.74051 | 4230 ft | 256 kts | 69° |
| 2026-04-29 00:30 | 48.67863 | -54.71518 | 3916 ft | 255 kts | 69° |
| 2026-04-29 00:31 | 48.68458 | -54.69001 | 3606 ft | 254 kts | 69° |
| 2026-04-29 00:31 | 48.69052 | -54.66484 | 3296 ft | 253 kts | 70° |
| 2026-04-29 00:31 | 48.69819 | -54.64125 | 2997 ft | 249 kts | 46° |
| 2026-04-29 00:31 | 48.71216 | -54.62874 | 2972 ft | 223 kts | 12° |
| 2026-04-29 00:32 | 48.72664 | -54.62440 | 2955 ft | 203 kts | 10° |
| 2026-04-29 00:32 | 48.73961 | -54.62034 | 2938 ft | 184 kts | 10° |
| 2026-04-29 00:32 | 48.75153 | -54.61676 | 2938 ft | 166 kts | 9° |
| 2026-04-29 00:32 | 48.76299 | -54.61342 | 2945 ft | 165 kts | 9° |
| 2026-04-29 00:33 | 48.77409 | -54.61021 | 2938 ft | 163 kts | 9° |
| 2026-04-29 00:33 | 48.78511 | -54.60702 | 2976 ft | 157 kts | 8° |
| 2026-04-29 00:33 | 48.79586 | -54.60391 | 2939 ft | 157 kts | 8° |
| 2026-04-29 00:33 | 48.80655 | -54.60083 | 2792 ft | 157 kts | 9° |
| 2026-04-29 00:34 | 48.81725 | -54.59773 | 2575 ft | 157 kts | 8° |
| 2026-04-29 00:34 | 48.82791 | -54.59465 | 2358 ft | 155 kts | 8° |
| 2026-04-29 00:34 | 48.83852 | -54.59158 | 2151 ft | 155 kts | 8° |
| 2026-04-29 00:34 | 48.84908 | -54.58852 | 1933 ft | 154 kts | 8° |
| 2026-04-29 00:35 | 48.85963 | -54.58548 | 1730 ft | 154 kts | 9° |
| 2026-04-29 00:35 | 48.87014 | -54.58246 | 1499 ft | 154 kts | 9° |
| 2026-04-29 00:35 | 48.88066 | -54.57951 | 1275 ft | 152 kts | 9° |
| 2026-04-29 00:35 | 48.89096 | -54.57642 | 1108 ft | 151 kts | 11° |
| 2026-04-29 00:36 | 48.90126 | -54.57347 | 860 ft | 151 kts | 11° |
| 2026-04-29 00:36 | 48.91165 | -54.57050 | 617 ft | 148 kts | 13° |
| 2026-04-29 00:36 | 48.92143 | -54.56761 | 523 ft | 145 kts | 12° |
| 2026-04-29 00:36 | 48.93103 | -54.56492 | 460 ft | 127 kts | 9° |
| 2026-04-29 00:37 | 48.93824 | -54.56287 | 450 ft | 84 kts | 13° |
| 2026-04-29 00:37 | 48.94165 | -54.56186 | 450 ft | 30 kts | 12° |
| 2026-04-29 00:37 | 48.94370 | -54.56118 | 448 ft | 30 kts | 13° |
| 2026-04-29 00:37 | 48.94568 | -54.56061 | 441 ft | 28 kts | 8° |
| 2026-04-29 00:38 | 48.94754 | -54.56039 | 438 ft | 26 kts | 339° |
| 2026-04-29 00:38 | 48.94829 | -54.56274 | 435 ft | 24 kts | 288° |
| 2026-04-29 00:38 | 48.94881 | -54.56510 | 432 ft | 23 kts | 288° |
| 2026-04-29 00:38 | 48.94930 | -54.56737 | 449 ft | 22 kts | 288° |
| 2026-04-29 00:39 | 48.94883 | -54.56924 | 451 ft | 22 kts | 208° |
| 2026-04-29 00:39 | 48.94742 | -54.56994 | 452 ft | 21 kts | 208° |
| 2026-04-29 00:39 | 48.94737 | -54.57192 | 452 ft | 20 kts | 290° |
| 2026-04-29 00:39 | 48.94719 | -54.57295 | 454 ft | 10 kts | 175° |
| 2026-04-29 00:40 | 48.94694 | -54.57302 | 454 ft | 0 kts | 201° |